createdAt,value
2016-06-28T00:00:00.164Z,49.24
2016-06-28T00:00:30.175Z,9.39
2016-06-28T00:01:00.188Z,9.94
2016-06-28T00:01:30.205Z,9.27
2016-06-28T00:02:00.214Z,9.19
2016-06-28T00:02:30.232Z,9.66
2016-06-28T00:03:00.248Z,9.06
2016-06-28T00:03:30.265Z,9.68
2016-06-28T00:04:00.292Z,8.86
2016-06-28T00:04:30.311Z,8.85
2016-06-28T00:05:00.305Z,8.94
2016-06-28T00:05:30.320Z,8.8
2016-06-28T00:06:00.338Z,8.92
2016-06-28T00:06:30.354Z,9.13
2016-06-28T00:07:00.367Z,9.11
2016-06-28T00:07:30.378Z,8.74
2016-06-28T00:08:00.394Z,8.52
2016-06-28T00:08:30.409Z,8.53
2016-06-28T00:09:00.426Z,8.51
2016-06-28T00:09:30.437Z,8.54
2016-06-28T00:10:00.458Z,8.76
2016-06-28T00:10:30.470Z,9.05
2016-06-28T00:11:00.487Z,8.56
2016-06-28T00:11:30.507Z,8.62
2016-06-28T00:12:00.515Z,9.49
2016-06-28T00:12:30.529Z,9.17
2016-06-28T00:13:00.542Z,8.56
2016-06-28T00:13:30.554Z,8.51
2016-06-28T00:14:00.603Z,8.52
2016-06-28T00:14:30.583Z,8.53
2016-06-28T00:15:00.598Z,8.94
2016-06-28T00:15:30.616Z,8.5
2016-06-28T00:16:00.630Z,8.51
2016-06-28T00:16:30.644Z,8.56
2016-06-28T00:17:00.667Z,8.6
2016-06-28T00:17:30.671Z,9.08
2016-06-28T00:18:00.687Z,8.59
2016-06-28T00:18:30.703Z,8.54
2016-06-28T00:19:00.718Z,8.52
2016-06-28T00:19:30.730Z,9.08
2016-06-28T00:20:00.744Z,8.55
2016-06-28T00:20:30.761Z,8.58
2016-06-28T00:21:00.776Z,8.51
2016-06-28T00:21:30.786Z,8.52
2016-06-28T00:22:00.804Z,8.54
2016-06-28T00:22:30.817Z,8.72
2016-06-28T00:23:00.835Z,8.58
2016-06-28T00:23:30.849Z,9.01
2016-06-28T00:24:00.869Z,8.53
2016-06-28T00:24:30.882Z,8.6
2016-06-28T00:25:00.896Z,8.59
2016-06-28T00:25:30.909Z,8.86
2016-06-28T00:26:00.925Z,8.56
2016-06-28T00:26:30.932Z,8.55
2016-06-28T00:27:00.951Z,44.36
2016-06-28T00:27:30.967Z,45.43
2016-06-28T00:28:00.979Z,22.47
2016-06-28T00:28:30.992Z,22.62
2016-06-28T00:29:01.011Z,22.71
2016-06-28T00:29:31.026Z,22.71
2016-06-28T00:30:01.041Z,22.78
2016-06-28T00:30:31.053Z,23.73
2016-06-28T00:31:01.068Z,22.08
2016-06-28T00:31:31.083Z,46.08
2016-06-28T00:32:01.098Z,48.86
2016-06-28T00:32:31.112Z,9.02
2016-06-28T00:33:01.127Z,9.21
2016-06-28T00:33:31.141Z,9.12
2016-06-28T00:34:01.157Z,9.3
2016-06-28T00:34:31.168Z,8.93
2016-06-28T00:35:01.187Z,9.15
2016-06-28T00:35:31.202Z,9.22
2016-06-28T00:36:01.211Z,8.89
2016-06-28T00:36:31.229Z,9.17
2016-06-28T00:37:01.244Z,8.62
2016-06-28T00:37:31.257Z,8.75
2016-06-28T00:38:01.270Z,8.76
2016-06-28T00:38:31.284Z,8.95
2016-06-28T00:39:01.304Z,8.62
2016-06-28T00:39:31.317Z,10.02
2016-06-28T00:40:01.334Z,9.37
2016-06-28T00:40:31.344Z,9.22
2016-06-28T00:41:01.362Z,8.93
2016-06-28T00:41:31.374Z,8.63
2016-06-28T00:42:01.390Z,8.69
2016-06-28T00:42:31.410Z,8.6
2016-06-28T00:43:01.418Z,8.6
2016-06-28T00:43:31.433Z,8.58
2016-06-28T00:44:01.458Z,8.56
2016-06-28T00:44:31.468Z,8.64
2016-06-28T00:45:01.479Z,8.9
2016-06-28T00:45:31.492Z,8.57
2016-06-28T00:46:01.515Z,8.57
2016-06-28T00:46:31.538Z,8.53
2016-06-28T00:47:01.535Z,8.53
2016-06-28T00:47:31.550Z,8.66
2016-06-28T00:48:01.563Z,8.47
2016-06-28T00:48:31.575Z,8.53
2016-06-28T00:49:01.594Z,9.08
2016-06-28T00:49:31.655Z,8.55
2016-06-28T00:50:01.625Z,8.55
2016-06-28T00:50:31.637Z,9.13
2016-06-28T00:51:01.651Z,8.69
2016-06-28T00:51:31.666Z,8.65
2016-06-28T00:52:01.682Z,8.56
2016-06-28T00:52:31.698Z,8.53
2016-06-28T00:53:01.710Z,8.53
2016-06-28T00:53:31.729Z,8.99
2016-06-28T00:54:01.746Z,8.51
2016-06-28T00:54:31.756Z,8.98
2016-06-28T00:55:01.776Z,8.51
2016-06-28T00:55:31.785Z,9.33
2016-06-28T00:56:01.800Z,8.5
2016-06-28T00:56:31.816Z,8.61
2016-06-28T00:57:01.830Z,8.53
2016-06-28T00:57:31.849Z,8.55
2016-06-28T00:58:01.858Z,8.56
2016-06-28T00:58:31.877Z,8.55
2016-06-28T00:59:01.886Z,45.42
2016-06-28T00:59:31.900Z,45.07
2016-06-28T01:00:01.918Z,23.51
2016-06-28T01:00:31.934Z,22.65
2016-06-28T01:01:01.964Z,22.61
2016-06-28T01:01:31.965Z,22.95
2016-06-28T01:02:01.984Z,23.23
2016-06-28T01:02:31.995Z,22.18
2016-06-28T01:03:02.008Z,46.16
2016-06-28T01:03:32.031Z,50.19
2016-06-28T01:04:02.039Z,8.68
2016-06-28T01:04:32.053Z,9.2
2016-06-28T01:05:02.068Z,9.2
2016-06-28T01:05:32.082Z,9.18
2016-06-28T01:06:02.098Z,9.25
2016-06-28T01:06:32.106Z,9.09
2016-06-28T01:07:02.122Z,8.92
2016-06-28T01:07:32.135Z,8.82
2016-06-28T01:08:02.157Z,8.87
2016-06-28T01:08:32.163Z,8.81
2016-06-28T01:09:02.181Z,8.97
2016-06-28T01:09:32.194Z,8.73
2016-06-28T01:10:02.215Z,8.78
2016-06-28T01:10:32.223Z,8.53
2016-06-28T01:11:02.235Z,8.65
2016-06-28T01:11:32.255Z,8.5
2016-06-28T01:12:02.271Z,8.85
2016-06-28T01:12:32.284Z,8.52
2016-06-28T01:13:02.301Z,8.54
2016-06-28T01:13:32.311Z,8.53
2016-06-28T01:14:02.330Z,8.52
2016-06-28T01:14:32.338Z,8.67
2016-06-28T01:15:02.355Z,8.53
2016-06-28T01:15:32.373Z,8.57
2016-06-28T01:16:02.387Z,8.6
2016-06-28T01:16:32.399Z,8.55
2016-06-28T01:17:02.415Z,8.52
2016-06-28T01:17:32.430Z,8.56
2016-06-28T01:18:02.442Z,8.66
2016-06-28T01:18:32.481Z,8.54
2016-06-28T01:19:02.471Z,8.5
2016-06-28T01:19:32.487Z,8.54
2016-06-28T01:20:02.500Z,8.57
2016-06-28T01:20:32.520Z,8.51
2016-06-28T01:21:02.536Z,9.21
2016-06-28T01:21:32.543Z,8.76
2016-06-28T01:22:02.561Z,8.51
2016-06-28T01:22:32.576Z,8.61
2016-06-28T01:23:02.586Z,8.55
2016-06-28T01:23:32.605Z,8.58
2016-06-28T01:24:02.618Z,8.54
2016-06-28T01:24:32.630Z,8.51
2016-06-28T01:25:02.654Z,8.53
2016-06-28T01:25:32.661Z,8.55
2016-06-28T01:26:02.677Z,8.51
2016-06-28T01:26:32.690Z,8.69
2016-06-28T01:27:02.699Z,8.55
2016-06-28T01:27:32.722Z,8.49
2016-06-28T01:28:02.738Z,8.56
2016-06-28T01:28:32.746Z,8.56
2016-06-28T01:29:02.762Z,8.74
2016-06-28T01:29:32.780Z,8.53
2016-06-28T01:30:02.797Z,8.65
2016-06-28T01:30:32.808Z,8.63
2016-06-28T01:31:02.820Z,37.25
2016-06-28T01:31:32.866Z,44.76
2016-06-28T01:32:02.853Z,22.62
2016-06-28T01:32:32.865Z,22.72
2016-06-28T01:33:02.880Z,19.86
2016-06-28T01:33:32.891Z,22.78
2016-06-28T01:34:02.910Z,23.78
2016-06-28T01:34:32.922Z,22.32
2016-06-28T01:35:02.938Z,46.98
2016-06-28T01:35:32.954Z,49.99
2016-06-28T01:36:02.968Z,9.61
2016-06-28T01:36:32.984Z,9.16
2016-06-28T01:37:02.998Z,9.15
2016-06-28T01:37:33.012Z,8.99
2016-06-28T01:38:03.025Z,9.26
2016-06-28T01:38:33.038Z,9.05
2016-06-28T01:39:03.059Z,9.17
2016-06-28T01:39:33.071Z,8.93
2016-06-28T01:40:03.086Z,8.92
2016-06-28T01:40:33.113Z,9.21
2016-06-28T01:41:03.113Z,8.78
2016-06-28T01:41:33.128Z,9.15
2016-06-28T01:42:03.138Z,8.83
2016-06-28T01:42:33.165Z,8.9
2016-06-28T01:43:03.170Z,8.55
2016-06-28T01:43:33.205Z,8.58
2016-06-28T01:44:03.232Z,8.59
2016-06-28T01:44:33.218Z,8.53
2016-06-28T01:45:03.226Z,8.51
2016-06-28T01:45:33.239Z,9.14
2016-06-28T01:46:03.257Z,8.55
2016-06-28T01:46:33.273Z,8.56
2016-06-28T01:47:03.286Z,8.58
2016-06-28T01:47:33.298Z,8.54
2016-06-28T01:48:03.314Z,8.53
2016-06-28T01:48:33.330Z,9.23
2016-06-28T01:49:03.340Z,8.54
2016-06-28T01:49:33.355Z,8.95
2016-06-28T01:50:03.371Z,8.54
2016-06-28T01:50:33.385Z,8.52
2016-06-28T01:51:03.400Z,8.58
2016-06-28T01:51:33.417Z,8.53
2016-06-28T01:52:03.432Z,8.55
2016-06-28T01:52:33.442Z,8.54
2016-06-28T01:53:03.458Z,8.53
2016-06-28T01:53:33.472Z,8.57
2016-06-28T01:54:03.494Z,8.57
2016-06-28T01:54:33.502Z,8.51
2016-06-28T01:55:03.521Z,9.16
2016-06-28T01:55:33.531Z,9.19
2016-06-28T01:56:03.553Z,8.52
2016-06-28T01:56:33.560Z,8.67
2016-06-28T01:57:03.571Z,8.52
2016-06-28T01:57:33.589Z,8.52
2016-06-28T01:58:03.602Z,8.56
2016-06-28T01:58:33.621Z,8.51
2016-06-28T01:59:03.631Z,8.87
2016-06-28T01:59:33.649Z,8.55
2016-06-28T02:00:03.667Z,8.56
2016-06-28T02:00:33.676Z,8.54
2016-06-28T02:01:03.690Z,8.51
2016-06-28T02:01:33.704Z,8.55
2016-06-28T02:02:03.722Z,8.51
2016-06-28T02:02:33.739Z,8.55
2016-06-28T02:03:03.753Z,45.51
2016-06-28T02:03:33.765Z,45.36
2016-06-28T02:04:03.774Z,22.66
2016-06-28T02:04:33.792Z,22.58
2016-06-28T02:05:03.805Z,22.79
2016-06-28T02:05:33.831Z,22.69
2016-06-28T02:06:03.833Z,23.98
2016-06-28T02:06:33.855Z,22.01
2016-06-28T02:07:03.861Z,46.24
2016-06-28T02:07:33.878Z,49.13
2016-06-28T02:08:03.897Z,9.19
2016-06-28T02:08:33.915Z,10.7
2016-06-28T02:09:03.917Z,9.44
2016-06-28T02:09:33.935Z,9.24
2016-06-28T02:10:03.953Z,9.02
2016-06-28T02:10:33.966Z,8.98
2016-06-28T02:11:03.982Z,8.95
2016-06-28T02:11:34.012Z,8.94
2016-06-28T02:12:04.022Z,9.21
2016-06-28T02:12:34.031Z,9.21
2016-06-28T02:13:04.040Z,8.81
2016-06-28T02:13:34.063Z,8.65
2016-06-28T02:14:04.074Z,9.12
2016-06-28T02:14:34.075Z,9.68
2016-06-28T02:15:04.093Z,8.71
2016-06-28T02:15:34.113Z,8.53
2016-06-28T02:16:04.135Z,8.8
2016-06-28T02:16:34.135Z,8.83
2016-06-28T02:17:04.156Z,45.06
2016-06-28T02:17:34.167Z,9.55
2016-06-28T02:18:04.188Z,8.53
2016-06-28T02:18:34.191Z,9
2016-06-28T02:19:04.212Z,8.56
2016-06-28T02:19:34.251Z,8.61
2016-06-28T02:20:04.236Z,8.9
2016-06-28T02:20:34.253Z,8.52
2016-06-28T02:21:04.268Z,8.55
2016-06-28T02:21:34.281Z,8.51
2016-06-28T02:22:04.296Z,8.51
2016-06-28T02:22:34.313Z,9.02
2016-06-28T02:23:04.326Z,8.68
2016-06-28T02:23:34.339Z,8.9
2016-06-28T02:24:04.361Z,9.4
2016-06-28T02:24:34.397Z,8.94
2016-06-28T02:25:04.385Z,8.52
2016-06-28T02:25:34.400Z,8.97
2016-06-28T02:26:04.414Z,8.5
2016-06-28T02:26:34.429Z,8.54
2016-06-28T02:27:04.443Z,8.52
2016-06-28T02:27:34.457Z,8.53
2016-06-28T02:28:04.473Z,8.56
2016-06-28T02:28:34.489Z,8.51
2016-06-28T02:29:04.501Z,8.27
2016-06-28T02:29:34.515Z,8.66
2016-06-28T02:30:04.527Z,8.58
2016-06-28T02:30:34.543Z,8.59
2016-06-28T02:31:04.564Z,8.53
2016-06-28T02:31:34.576Z,8.55
2016-06-28T02:32:04.589Z,8.53
2016-06-28T02:32:34.611Z,8.53
2016-06-28T02:33:04.619Z,8.51
2016-06-28T02:33:34.631Z,8.51
2016-06-28T02:34:04.649Z,8.52
2016-06-28T02:34:34.657Z,9.04
2016-06-28T02:35:04.676Z,44.26
2016-06-28T02:35:34.691Z,45.15
2016-06-28T02:36:04.698Z,22.58
2016-06-28T02:36:34.722Z,22.51
2016-06-28T02:37:04.731Z,23.82
2016-06-28T02:37:34.744Z,23.63
2016-06-28T02:38:04.760Z,23.63
2016-06-28T02:38:34.777Z,157.86
2016-06-28T02:39:04.787Z,46.1
2016-06-28T02:39:34.810Z,46.33
2016-06-28T02:40:04.817Z,49.4
2016-06-28T02:40:34.830Z,9.11
2016-06-28T02:41:04.850Z,9.1
2016-06-28T02:41:34.868Z,9.05
2016-06-28T02:42:04.873Z,9.22
2016-06-28T02:42:34.894Z,9.51
2016-06-28T02:43:04.905Z,8.91
2016-06-28T02:43:34.927Z,8.99
2016-06-28T02:44:04.933Z,9.2
2016-06-28T02:44:34.948Z,9.08
2016-06-28T02:45:04.959Z,9.25
2016-06-28T02:45:34.997Z,9.1
2016-06-28T02:46:04.994Z,9.02
2016-06-28T02:46:35.007Z,8.63
2016-06-28T02:47:05.025Z,8.49
2016-06-28T02:47:35.037Z,8.75
2016-06-28T02:48:05.051Z,8.64
2016-06-28T02:48:35.063Z,8.49
2016-06-28T02:49:05.081Z,8.51
2016-06-28T02:49:35.092Z,8.53
2016-06-28T02:50:05.118Z,8.55
2016-06-28T02:50:35.120Z,8.56
2016-06-28T02:51:05.132Z,9.16
2016-06-28T02:51:35.149Z,8.58
2016-06-28T02:52:05.161Z,8.52
2016-06-28T02:52:35.178Z,8.53
2016-06-28T02:53:05.190Z,8.81
2016-06-28T02:53:35.210Z,8.55
2016-06-28T02:54:05.224Z,8.55
2016-06-28T02:54:35.238Z,8.88
2016-06-28T02:55:05.251Z,8.47
2016-06-28T02:55:35.263Z,8.94
2016-06-28T02:56:05.278Z,8.48
2016-06-28T02:56:35.300Z,8.57
2016-06-28T02:57:05.307Z,8.48
2016-06-28T02:57:35.335Z,8.48
2016-06-28T02:58:05.348Z,8.84
2016-06-28T02:58:35.356Z,8.48
2016-06-28T02:59:05.369Z,8.53
2016-06-28T02:59:35.383Z,8.44
2016-06-28T03:00:05.396Z,8.41
2016-06-28T03:00:35.415Z,8.48
2016-06-28T03:01:05.424Z,8.93
2016-06-28T03:01:35.439Z,8.46
2016-06-28T03:02:05.456Z,8.44
2016-06-28T03:02:35.479Z,8.48
2016-06-28T03:03:05.487Z,8.93
2016-06-28T03:03:35.501Z,8.68
2016-06-28T03:04:05.515Z,8.62
2016-06-28T03:04:35.527Z,8.91
2016-06-28T03:05:05.543Z,8.62
2016-06-28T03:05:35.552Z,8.42
2016-06-28T03:06:05.567Z,8.44
2016-06-28T03:06:35.582Z,8.42
2016-06-28T03:07:05.602Z,44.01
2016-06-28T03:07:35.612Z,44.44
2016-06-28T03:08:05.631Z,22.18
2016-06-28T03:08:35.649Z,22.47
2016-06-28T03:09:05.657Z,19.63
2016-06-28T03:09:35.671Z,22.52
2016-06-28T03:10:05.693Z,22.68
2016-06-28T03:10:35.699Z,21.78
2016-06-28T03:11:05.713Z,47.36
2016-06-28T03:11:35.732Z,46.07
2016-06-28T03:12:05.746Z,48.5
2016-06-28T03:12:35.759Z,9.09
2016-06-28T03:13:05.786Z,9.12
2016-06-28T03:13:35.787Z,9.1
2016-06-28T03:14:05.803Z,9.15
2016-06-28T03:14:35.816Z,8.95
2016-06-28T03:15:05.832Z,8.98
2016-06-28T03:15:35.854Z,9.04
2016-06-28T03:16:05.859Z,8.74
2016-06-28T03:16:35.882Z,8.82
2016-06-28T03:17:05.888Z,8.79
2016-06-28T03:17:35.907Z,8.7
2016-06-28T03:18:05.918Z,8.63
2016-06-28T03:18:35.930Z,8.58
2016-06-28T03:19:05.946Z,9.65
2016-06-28T03:19:35.961Z,9.15
2016-06-28T03:20:05.976Z,8.4
2016-06-28T03:20:35.994Z,8.45
2016-06-28T03:21:06.005Z,8.47
2016-06-28T03:21:36.026Z,8.42
2016-06-28T03:22:06.035Z,8.46
2016-06-28T03:22:36.051Z,8.88
2016-06-28T03:23:06.065Z,8.48
2016-06-28T03:23:36.076Z,8.45
2016-06-28T03:24:06.094Z,8.43
2016-06-28T03:24:36.110Z,8.43
2016-06-28T03:25:06.127Z,8.46
2016-06-28T03:25:36.133Z,8.44
2016-06-28T03:26:06.147Z,8.43
2016-06-28T03:26:36.167Z,8.42
2016-06-28T03:27:06.185Z,8.46
2016-06-28T03:27:36.196Z,8.49
2016-06-28T03:28:06.209Z,8.38
2016-06-28T03:28:36.225Z,8.38
2016-06-28T03:29:06.242Z,8.46
2016-06-28T03:29:36.254Z,8.41
2016-06-28T03:30:06.270Z,8.43
2016-06-28T03:30:36.287Z,8.46
2016-06-28T03:31:06.293Z,9.03
2016-06-28T03:31:36.314Z,8.41
2016-06-28T03:32:06.323Z,8.41
2016-06-28T03:32:36.339Z,8.38
2016-06-28T03:33:06.355Z,8.38
2016-06-28T03:33:36.373Z,8.36
2016-06-28T03:34:06.380Z,8.37
2016-06-28T03:34:36.398Z,8.36
2016-06-28T03:35:06.407Z,8.35
2016-06-28T03:35:36.434Z,8.28
2016-06-28T03:36:06.441Z,8.28
2016-06-28T03:36:36.453Z,8.27
2016-06-28T03:37:06.471Z,8.24
2016-06-28T03:37:36.489Z,8.25
2016-06-28T03:38:06.499Z,8.5
2016-06-28T03:38:36.511Z,8.25
2016-06-28T03:39:06.533Z,44.24
2016-06-28T03:39:36.546Z,36.74
2016-06-28T03:40:06.558Z,22.54
2016-06-28T03:40:36.571Z,22.78
2016-06-28T03:41:06.583Z,22.08
2016-06-28T03:41:36.602Z,22.09
2016-06-28T03:42:06.618Z,22.34
2016-06-28T03:42:36.627Z,21.39
2016-06-28T03:43:06.645Z,45.92
2016-06-28T03:43:36.657Z,47.75
2016-06-28T03:44:06.675Z,9.35
2016-06-28T03:44:36.691Z,8.94
2016-06-28T03:45:06.708Z,8.92
2016-06-28T03:45:36.718Z,9.21
2016-06-28T03:46:06.734Z,8.85
2016-06-28T03:46:36.747Z,8.83
2016-06-28T03:47:06.764Z,8.7
2016-06-28T03:47:36.775Z,8.65
2016-06-28T03:48:06.794Z,8.6
2016-06-28T03:48:36.806Z,9.02
2016-06-28T03:49:06.817Z,9.39
2016-06-28T03:49:36.841Z,8.58
2016-06-28T03:50:06.852Z,8.43
2016-06-28T03:50:36.865Z,8.4
2016-06-28T03:51:06.878Z,8.4
2016-06-28T03:51:36.892Z,8.81
2016-06-28T03:52:06.906Z,8.48
2016-06-28T03:52:36.924Z,8.48
2016-06-28T03:53:06.933Z,8.48
2016-06-28T03:53:36.952Z,9.18
2016-06-28T03:54:06.961Z,9.12
2016-06-28T03:54:36.977Z,9.18
2016-06-28T03:55:06.994Z,9.18
2016-06-28T03:55:37.007Z,44.21
2016-06-28T03:56:07.018Z,9.47
2016-06-28T03:56:37.038Z,9.87
2016-06-28T03:57:07.051Z,9.7
2016-06-28T03:57:37.065Z,10.06
2016-06-28T03:58:07.079Z,11.12
2016-06-28T03:58:37.099Z,10.67
2016-06-28T03:59:07.109Z,10.6
2016-06-28T03:59:37.123Z,11.16
2016-06-28T04:00:07.138Z,11.29
2016-06-28T04:00:37.153Z,11.47
2016-06-28T04:01:07.170Z,10.36
2016-06-28T04:01:37.178Z,10.08
2016-06-28T04:02:07.187Z,10.21
2016-06-28T04:02:37.208Z,10.59
2016-06-28T04:03:07.222Z,8.66
2016-06-28T04:03:37.237Z,8.8
2016-06-28T04:04:07.248Z,8.28
2016-06-28T04:04:37.266Z,8.15
2016-06-28T04:05:07.279Z,8.15
2016-06-28T04:05:37.295Z,8.16
2016-06-28T04:06:07.310Z,8.62
2016-06-28T04:06:37.326Z,8.45
2016-06-28T04:07:07.340Z,8.77
2016-06-28T04:07:37.350Z,8.71
2016-06-28T04:08:07.367Z,8.55
2016-06-28T04:08:37.383Z,8.34
2016-06-28T04:09:07.399Z,8.18
2016-06-28T04:09:37.410Z,8.53
2016-06-28T04:10:07.430Z,8.18
2016-06-28T04:10:37.442Z,8.42
2016-06-28T04:11:07.456Z,42.83
2016-06-28T04:11:37.470Z,43.17
2016-06-28T04:12:07.485Z,21.52
2016-06-28T04:12:37.502Z,21.79
2016-06-28T04:13:07.507Z,22.02
2016-06-28T04:13:37.525Z,22.01
2016-06-28T04:14:07.562Z,19.28
2016-06-28T04:14:37.555Z,47.18
2016-06-28T04:15:07.569Z,45.93
2016-06-28T04:15:37.589Z,49.8
2016-06-28T04:16:07.601Z,9.4
2016-06-28T04:16:37.611Z,9.08
2016-06-28T04:17:07.627Z,9.13
2016-06-28T04:17:37.642Z,9.09
2016-06-28T04:18:07.661Z,8.98
2016-06-28T04:18:37.674Z,8.75
2016-06-28T04:19:07.694Z,9.43
2016-06-28T04:19:37.702Z,9.43
2016-06-28T04:20:07.717Z,9.77
2016-06-28T04:20:37.730Z,10.64
2016-06-28T04:21:07.752Z,10.55
2016-06-28T04:21:37.763Z,10.97
2016-06-28T04:22:07.776Z,11.39
2016-06-28T04:22:37.785Z,11.89
2016-06-28T04:23:07.804Z,11.35
2016-06-28T04:23:37.822Z,12.28
2016-06-28T04:24:07.838Z,11.02
2016-06-28T04:24:37.851Z,11.42
2016-06-28T04:25:07.871Z,10.69
2016-06-28T04:25:37.882Z,11.17
2016-06-28T04:26:07.891Z,11.94
2016-06-28T04:26:37.912Z,12.68
2016-06-28T04:27:07.920Z,11.32
2016-06-28T04:27:37.935Z,11.27
2016-06-28T04:28:07.952Z,12.01
2016-06-28T04:28:37.968Z,11.45
2016-06-28T04:29:07.979Z,12.56
2016-06-28T04:29:37.995Z,12.48
2016-06-28T04:30:08.026Z,12
2016-06-28T04:30:38.035Z,12.44
2016-06-28T04:31:08.040Z,12.44
2016-06-28T04:31:38.053Z,12.45
2016-06-28T04:32:08.073Z,11.77
2016-06-28T04:32:38.088Z,12.4
2016-06-28T04:33:08.101Z,13.11
2016-06-28T04:33:38.113Z,11.96
2016-06-28T04:34:08.131Z,12.68
2016-06-28T04:34:38.145Z,12.87
2016-06-28T04:35:08.159Z,14
2016-06-28T04:35:39.432Z,13.71
2016-06-28T04:36:09.472Z,7.85
2016-06-28T04:36:38.205Z,8.7
2016-06-28T04:37:09.457Z,14.48
2016-06-28T04:37:39.477Z,9.07
2016-06-28T04:38:08.250Z,9.48
2016-06-28T04:38:39.504Z,14.98
2016-06-28T04:39:09.493Z,9.48
2016-06-28T04:39:38.911Z,8.88
2016-06-28T04:40:08.303Z,9.99
2016-06-28T04:40:39.609Z,14.63
2016-06-28T04:41:08.332Z,194.89
2016-06-28T04:41:39.681Z,66.2
2016-06-28T04:42:09.758Z,217.35
2016-06-28T04:42:39.496Z,212.73
2016-06-28T04:43:09.502Z,73.86
2016-06-28T04:43:39.843Z,77.07
2016-06-28T04:44:09.693Z,79.57
2016-06-28T04:44:39.776Z,78.55
2016-06-28T04:45:09.911Z,84.9
2016-06-28T04:45:39.789Z,84.64
2016-06-28T04:46:09.932Z,204.12
2016-06-28T04:46:39.944Z,233.51
2016-06-28T04:47:09.909Z,9.33
2016-06-28T04:47:39.932Z,8.77
2016-06-28T04:48:09.964Z,9.55
2016-06-28T04:48:39.953Z,8.77
2016-06-28T04:49:10.019Z,6.43
2016-06-28T04:49:39.971Z,5.79
2016-06-28T04:50:10.047Z,5.97
2016-06-28T04:50:39.721Z,5.39
2016-06-28T04:51:10.058Z,5.41
2016-06-28T04:51:40.071Z,5.55
2016-06-28T04:52:09.824Z,5.45
2016-06-28T04:52:40.016Z,5.1
2016-06-28T04:53:10.075Z,5.06
2016-06-28T04:53:40.179Z,5.31
2016-06-28T04:54:09.934Z,5.08
2016-06-28T04:54:40.062Z,5.31
2016-06-28T04:55:09.814Z,4.9
2016-06-28T04:55:40.099Z,5.82
2016-06-28T04:56:08.786Z,6.99
2016-06-28T04:56:39.487Z,8.39
2016-06-28T04:57:09.939Z,6.08
2016-06-28T04:57:39.714Z,5.64
2016-06-28T04:58:10.290Z,5.14
2016-06-28T04:58:40.272Z,5.18
2016-06-28T04:59:10.221Z,5.33
2016-06-28T04:59:39.762Z,6.28
2016-06-28T05:00:10.343Z,6.78
2016-06-28T05:00:40.199Z,7.67
2016-06-28T05:01:08.938Z,7.69
2016-06-28T05:01:38.943Z,14.96
2016-06-28T05:02:08.956Z,15.26
2016-06-28T05:02:38.979Z,16.18
2016-06-28T05:03:08.996Z,18.11
2016-06-28T05:03:39.010Z,15.99
2016-06-28T05:04:09.059Z,21.08
2016-06-28T05:04:39.034Z,28.67
2016-06-28T05:05:09.050Z,7.49
2016-06-28T05:05:39.061Z,33.92
2016-06-28T05:06:09.075Z,18.28
2016-06-28T05:06:39.094Z,9.97
2016-06-28T05:07:09.107Z,14.85
2016-06-28T05:07:39.117Z,13.52
2016-06-28T05:08:09.137Z,32.74
2016-06-28T05:08:39.154Z,9.46
2016-06-28T05:09:09.166Z,8.76
2016-06-28T05:09:39.176Z,8.72
2016-06-28T05:10:09.197Z,8.71
2016-06-28T05:10:39.209Z,8.71
2016-06-28T05:11:09.229Z,8.7
2016-06-28T05:11:39.237Z,8.72
2016-06-28T05:12:09.258Z,8.7
2016-06-28T05:12:39.271Z,8.71
2016-06-28T05:13:09.289Z,8.71
2016-06-28T05:13:39.302Z,8.71
2016-06-28T05:14:09.315Z,46.1
2016-06-28T05:14:39.336Z,45.9
2016-06-28T05:15:09.347Z,22.79
2016-06-28T05:15:39.362Z,22.3
2016-06-28T05:16:09.373Z,22.1
2016-06-28T05:16:39.407Z,21.41
2016-06-28T05:17:09.410Z,19.72
2016-06-28T05:17:39.419Z,47.57
2016-06-28T05:18:09.443Z,42.9
2016-06-28T05:18:39.451Z,47.63
2016-06-28T05:19:09.465Z,50.45
2016-06-28T05:19:39.487Z,9.37
2016-06-28T05:20:09.501Z,9.35
2016-06-28T05:20:39.522Z,9.16
2016-06-28T05:21:09.532Z,9.29
2016-06-28T05:21:39.550Z,9.08
2016-06-28T05:22:09.562Z,9.04
2016-06-28T05:22:39.579Z,9.33
2016-06-28T05:23:09.589Z,8.98
2016-06-28T05:23:39.606Z,9.02
2016-06-28T05:24:09.625Z,8.97
2016-06-28T05:24:39.637Z,8.67
2016-06-28T05:25:09.651Z,8.86
2016-06-28T05:25:39.666Z,8.67
2016-06-28T05:26:09.681Z,8.66
2016-06-28T05:26:39.698Z,8.68
2016-06-28T05:27:09.718Z,8.64
2016-06-28T05:27:39.731Z,8.64
2016-06-28T05:28:09.745Z,8.64
2016-06-28T05:28:39.757Z,8.64
2016-06-28T05:29:09.775Z,8.64
2016-06-28T05:29:39.793Z,8.65
2016-06-28T05:30:09.802Z,8.62
2016-06-28T05:30:39.823Z,7.23
2016-06-28T05:31:09.843Z,7.05
2016-06-28T05:31:39.849Z,9.95
2016-06-28T05:32:09.865Z,16.73
2016-06-28T05:32:39.886Z,16.27
2016-06-28T05:33:09.911Z,14.85
2016-06-28T05:33:39.912Z,13.56
2016-06-28T05:34:09.932Z,12.81
2016-06-28T05:34:39.945Z,12.51
2016-06-28T05:35:09.959Z,12.56
2016-06-28T05:35:39.974Z,15.21
2016-06-28T05:36:09.992Z,13.39
2016-06-28T05:36:40.006Z,11.11
2016-06-28T05:37:10.019Z,10.49
2016-06-28T05:37:40.041Z,10.43
2016-06-28T05:38:10.055Z,8.84
2016-06-28T05:38:40.067Z,15.2
2016-06-28T05:39:10.081Z,13.11
2016-06-28T05:39:40.095Z,14.32
2016-06-28T05:40:10.113Z,14.15
2016-06-28T05:40:40.131Z,15.39
2016-06-28T05:41:10.157Z,14.72
2016-06-28T05:41:40.159Z,14.5
2016-06-28T05:42:10.173Z,14.45
2016-06-28T05:42:40.193Z,13.98
2016-06-28T05:43:10.207Z,58.61
2016-06-28T05:43:40.218Z,59.25
2016-06-28T05:44:10.237Z,58.36
2016-06-28T05:44:40.254Z,60.52
2016-06-28T05:45:10.269Z,39.55
2016-06-28T05:45:40.280Z,38.75
2016-06-28T05:46:10.301Z,39.47
2016-06-28T05:46:40.312Z,39.97
2016-06-28T05:47:10.327Z,39.49
2016-06-28T05:47:40.346Z,61.59
2016-06-28T05:48:10.357Z,63.03
2016-06-28T05:48:40.373Z,68.68
2016-06-28T05:49:10.394Z,16.78
2016-06-28T05:49:40.403Z,17.18
2016-06-28T05:50:10.423Z,16.82
2016-06-28T05:50:40.438Z,16.48
2016-06-28T05:51:10.466Z,16.22
2016-06-28T05:51:40.469Z,16.3
2016-06-28T05:52:10.479Z,17.26
2016-06-28T05:52:40.497Z,17.21
2016-06-28T05:53:10.507Z,12.41
2016-06-28T05:53:40.529Z,19.85
2016-06-28T05:54:10.541Z,16.75
2016-06-28T05:54:40.555Z,14.7
2016-06-28T05:55:10.568Z,14.57
2016-06-28T05:55:40.598Z,20.85
2016-06-28T05:56:10.607Z,16.07
2016-06-28T05:56:40.619Z,16.75
2016-06-28T05:57:10.632Z,16.61
2016-06-28T05:57:40.683Z,16.77
2016-06-28T05:58:10.674Z,16.57
2016-06-28T05:58:40.683Z,16.21
2016-06-28T05:59:10.707Z,15.35
2016-06-28T05:59:40.709Z,8.52
2016-06-28T06:00:10.725Z,7.17
2016-06-28T06:00:40.739Z,7.2
2016-06-28T06:01:10.755Z,7.59
2016-06-28T06:01:40.777Z,7.45
2016-06-28T06:02:10.787Z,7.62
2016-06-28T06:02:40.803Z,7.83
2016-06-28T06:03:10.814Z,7.8
2016-06-28T06:03:40.833Z,7.79
2016-06-28T06:04:10.846Z,7.85
2016-06-28T06:04:40.864Z,8.04
2016-06-28T06:05:10.883Z,8.24
2016-06-28T06:05:40.890Z,8.4
2016-06-28T06:06:10.923Z,8.5
2016-06-28T06:06:40.928Z,8.58
2016-06-28T06:07:10.942Z,8.64
2016-06-28T06:07:40.955Z,8.65
2016-06-28T06:08:10.974Z,8.65
2016-06-28T06:08:40.990Z,8.68
2016-06-28T06:09:11.002Z,8.68
2016-06-28T06:09:41.017Z,8.68
2016-06-28T06:10:11.036Z,8.64
2016-06-28T06:10:41.055Z,8.68
2016-06-28T06:11:11.066Z,8.68
2016-06-28T06:11:41.079Z,8.67
2016-06-28T06:12:11.092Z,8.65
2016-06-28T06:12:41.107Z,8.66
2016-06-28T06:13:11.128Z,8.65
2016-06-28T06:13:41.151Z,8.64
2016-06-28T06:14:11.159Z,8.64
2016-06-28T06:14:41.174Z,8.64
2016-06-28T06:15:11.201Z,45.63
2016-06-28T06:15:41.212Z,46.02
2016-06-28T06:16:11.226Z,22.78
2016-06-28T06:16:41.239Z,22.86
2016-06-28T06:17:11.250Z,22.99
2016-06-28T06:17:41.279Z,23.04
2016-06-28T06:18:11.281Z,23.1
2016-06-28T06:18:41.304Z,22.13
2016-06-28T06:19:11.319Z,47.35
2016-06-28T06:19:41.327Z,41.76
2016-06-28T06:20:11.348Z,9.37
2016-06-28T06:20:41.366Z,9.39
2016-06-28T06:21:11.377Z,9.4
2016-06-28T06:21:41.410Z,9.4
2016-06-28T06:22:11.433Z,9.2
2016-06-28T06:22:41.423Z,9.18
2016-06-28T06:23:11.446Z,9.15
2016-06-28T06:23:41.464Z,9.11
2016-06-28T06:24:11.480Z,9.09
2016-06-28T06:24:41.494Z,9.04
2016-06-28T06:25:11.511Z,9.09
2016-06-28T06:25:41.530Z,8.79
2016-06-28T06:26:11.547Z,8.79
2016-06-28T06:26:41.559Z,9.49
2016-06-28T06:27:11.576Z,8.81
2016-06-28T06:27:41.603Z,8.83
2016-06-28T06:28:11.610Z,8.97
2016-06-28T06:28:41.627Z,9.1
2016-06-28T06:29:11.642Z,9.14
2016-06-28T06:29:41.678Z,9.26
2016-06-28T06:30:11.679Z,9.35
2016-06-28T06:30:41.695Z,10.17
2016-06-28T06:31:11.713Z,9.54
2016-06-28T06:31:41.730Z,9.65
2016-06-28T06:32:11.746Z,9.68
2016-06-28T06:32:41.768Z,9.84
2016-06-28T06:33:11.786Z,9.91
2016-06-28T06:33:41.798Z,9.97
2016-06-28T06:34:11.818Z,10.02
2016-06-28T06:34:41.837Z,10.13
2016-06-28T06:35:11.854Z,10.17
2016-06-28T06:35:41.874Z,10.97
2016-06-28T06:36:11.893Z,10.17